Time;durP1;ratioP1;P1;durP2;ratioP2;P2;SDS_P1;SDS_P2;PMS_P1;PMS_P2;Temp;Humidity;BMP_temperature;BMP_pressure;BME280_temperature;BME280_humidity;BME280_pressure;Samples;Min_cycle;Max_cycle;Signal;HPM_P1;HPM_P2
2021/09/28 00:00:22;;;;;;;;;;;;;;;;;;1026405;28;877;-34
2021/09/28 00:00:52;;;;;;;;;;;;;;;;;;1026326;28;1001;-32
2021/09/28 00:01:23;;;;;;;;;;;;;;;;;;1026514;28;980;-34
2021/09/28 00:01:53;;;;;;;;;;;;;;;;;;1026762;28;909;-31
2021/09/28 00:02:23;;;;;;;;;;;;;;;;;;1026749;28;1095;-33
2021/09/28 00:02:54;;;;;;;;;;;;;;;;;;1026636;28;912;-33
2021/09/28 00:03:24;;;;;;;;;;;;;;;;;;1026820;28;988;-35
2021/09/28 00:03:54;;;;;;;;;;;;;;;;;;1025985;28;1721;-31
2021/09/28 00:04:25;;;;;;;;;;;;;;;;;;1025592;28;1004;-32
2021/09/28 00:04:55;;;;;;;;;;;;;;;;;;1026530;28;846;-40
2021/09/28 00:05:25;;;;;;;;;;;;;;;;;;1026107;28;930;-32
2021/09/28 00:05:56;;;;;;;;;;;;;;;;;;1026619;28;1211;-32
2021/09/28 00:06:26;;;;;;;;;;;;;;;;;;1026386;28;1089;-32
2021/09/28 00:06:57;;;;;;;;;;;;;;;;;;1026679;28;937;-31
2021/09/28 00:07:27;;;;;;;;;;;;;;;;;;1026651;28;889;-32
2021/09/28 00:07:58;;;;;;;;;;;;;;;;;;1026548;28;1021;-31
2021/09/28 00:08:29;;;;;;;;;;;;;;;;;;1025902;28;1237;-30
2021/09/28 00:08:59;;;;;;;;;;;;;;;;;;1021930;29;1022;-30
2021/09/28 00:09:30;;;;;;;;;;;;;;;;;;1021726;29;1126;-31
2021/09/28 00:10:00;;;;;;;;;;;;;;;;;;1022174;29;887;-35
2021/09/28 00:10:31;;;;;;;;;;;;;;;;;;1025918;28;933;-34
2021/09/28 00:11:02;;;;;;;;;;;;;;;;;;1026697;28;910;-29
2021/09/28 00:11:33;;;;;;;;;;;;;;;;;;1026490;28;1799;-33
2021/09/28 00:12:03;;;;;;;;;;;;;;;;;;1026363;28;1997;-34
2021/09/28 00:12:34;;;;;;;;;;;;;;;;;;1026623;28;1108;-36
2021/09/28 00:13:05;;;;;;;;;;;;;;;;;;1026546;28;1206;-35
2021/09/28 00:13:36;;;;;;;;;;;;;;;;;;1026353;28;1284;-34
2021/09/28 00:14:06;;;;;;;;;;;;;;;;;;1022708;28;969;-35
2021/09/28 00:14:37;;;;;;;;;;;;;;;;;;1022463;29;1018;-33
2021/09/28 00:15:08;;;;;;;;;;;;;;;;;;1022797;28;933;-36
2021/09/28 00:15:38;;;;;;;;;;;;;;;;;;1022649;28;1049;-34
2021/09/28 00:16:09;;;;;;;;;;;;;;;;;;1022665;28;996;-38
2021/09/28 00:16:39;;;;;;;;;;;;;;;;;;1022779;29;1005;-35
2021/09/28 00:17:10;;;;;;;;;;;;;;;;;;1022581;29;955;-31
2021/09/28 00:17:40;;;;;;;;;;;;;;;;;;1022587;29;1111;-35
2021/09/28 00:18:10;;;;;;;;;;;;;;;;;;1022831;29;771;-34
2021/09/28 00:18:41;;;;;;;;;;;;;;;;;;1022611;28;961;-34
2021/09/28 00:19:12;;;;;;;;;;;;;;;;;;1021958;29;1081;-34
2021/09/28 00:19:42;;;;;;;;;;;;;;;;;;1021943;29;1199;-34
2021/09/28 00:20:13;;;;;;;;;;;;;;;;;;1021973;29;1244;-35
2021/09/28 00:20:43;;;;;;;;;;;;;;;;;;1022035;29;920;-34
2021/09/28 00:21:13;;;;;;;;;;;;;;;;;;1022576;29;918;-28
2021/09/28 00:21:44;;;;;;;;;;;;;;;;;;1022727;29;964;-35
2021/09/28 00:22:14;;;;;;;;;;;;;;;;;;1022566;29;906;-33
2021/09/28 00:22:45;;;;;;;;;;;;;;;;;;1025579;28;1557;-35
2021/09/28 00:23:15;;;;;;;;;;;;;;;;;;1026520;28;1081;-32
2021/09/28 00:23:45;;;;;;;;;;;;;;;;;;1026665;28;985;-32
2021/09/28 00:24:17;;;;;;;;;;;;;;;;;;1026681;28;1188;-37
2021/09/28 00:24:47;;;;;;;;;;;;;;;;;;1029850;28;1116;-34
2021/09/28 00:25:18;;;;;;;;;;;;;;;;;;1029976;28;957;-32
2021/09/28 00:25:51;;;;;;;;;;;;;;;;;;1030041;28;1031;-34
2021/09/28 00:26:21;;;;;;;;;;;;;;;;;;1029890;28;841;-35
2021/09/28 00:26:51;;;;;;;;;;;;;;;;;;1030604;28;960;-35
2021/09/28 00:27:22;;;;;;;;;;;;;;;;;;1030050;28;1028;-33
2021/09/28 00:27:52;;;;;;;;;;;;;;;;;;1030312;28;866;-36
2021/09/28 00:28:24;;;;;;;;;;;;;;;;;;1030341;28;973;-35
2021/09/28 00:28:54;;;;;;;;;;;;;;;;;;1030069;28;931;-34
2021/09/28 00:29:25;;;;;;;;;;;;;;;;;;1030730;28;922;-35
2021/09/28 00:29:55;;;;;;;;;;;;;;;;;;1030311;28;947;-32
2021/09/28 00:30:26;;;;;;;;;;;;;;;;;;1030046;28;925;-34
2021/09/28 00:30:56;;;;;;;;;;;;;;;;;;1030743;28;838;-29
2021/09/28 00:31:27;;;;;;;;;;;;;;;;;;1030503;28;1190;-32
2021/09/28 00:31:57;;;;;;;;;;;;;;;;;;1030559;28;1985;-36
2021/09/28 00:32:27;;;;;;;;;;;;;;;;;;1030586;28;1137;-34
2021/09/28 00:32:58;;;;;;;;;;;;;;;;;;1029734;28;1056;-35
2021/09/28 00:33:29;;;;;;;;;;;;;;;;;;1029748;28;1089;-36
2021/09/28 00:34:00;;;;;;;;;;;;;;;;;;1029912;28;1054;-32
2021/09/28 00:34:30;;;;;;;;;;;;;;;;;;1029817;28;869;-37
2021/09/28 00:35:00;;;;;;;;;;;;;;;;;;1030680;28;1022;-34
2021/09/28 00:35:31;;;;;;;;;;;;;;;;;;1030376;28;976;-35
2021/09/28 00:36:01;;;;;;;;;;;;;;;;;;1029780;28;3611;-35
2021/09/28 00:36:32;;;;;;;;;;;;;;;;;;1026609;28;1271;-37
2021/09/28 00:37:02;;;;;;;;;;;;;;;;;;1026566;28;1089;-33
2021/09/28 00:37:33;;;;;;;;;;;;;;;;;;1026498;28;937;-38
2021/09/28 00:38:03;;;;;;;;;;;;;;;;;;1026419;28;1054;-34
2021/09/28 00:38:34;;;;;;;;;;;;;;;;;;1024712;28;3615;-36
2021/09/28 00:39:04;;;;;;;;;;;;;;;;;;1025610;28;1284;-35
2021/09/28 00:39:35;;;;;;;;;;;;;;;;;;1026408;28;1038;-33
2021/09/28 00:40:05;;;;;;;;;;;;;;;;;;1026719;28;1024;-34
2021/09/28 00:40:36;;;;;;;;;;;;;;;;;;1026724;28;846;-35
2021/09/28 00:41:06;;;;;;;;;;;;;;;;;;1026536;28;938;-30
2021/09/28 00:41:37;;;;;;;;;;;;;;;;;;1026507;28;977;-35
2021/09/28 00:42:07;;;;;;;;;;;;;;;;;;1026560;28;938;-33
2021/09/28 00:42:37;;;;;;;;;;;;;;;;;;1026664;28;870;-34
2021/09/28 00:43:08;;;;;;;;;;;;;;;;;;1026560;28;929;-34
2021/09/28 00:43:53;;;;;;;;;;;;;;;;;;1026521;28;895;-36
2021/09/28 00:44:37;;;;;;;;;;;;;;;;;;1026433;28;1064;-36
2021/09/28 00:45:09;;;;;;;;;;;;;;;;;;1026385;28;898;-35
2021/09/28 00:45:39;;;;;;;;;;;;;;;;;;1026736;28;929;-36
2021/09/28 00:46:09;;;;;;;;;;;;;;;;;;1026644;28;967;-35
2021/09/28 00:46:40;;;;;;;;;;;;;;;;;;1026537;28;885;-36
2021/09/28 00:47:11;;;;;;;;;;;;;;;;;;1026672;28;1145;-33
2021/09/28 00:47:41;;;;;;;;;;;;;;;;;;1026606;28;949;-35
2021/09/28 00:48:13;;;;;;;;;;;;;;;;;;1026467;28;1125;-33
2021/09/28 00:48:44;;;;;;;;;;;;;;;;;;1026796;28;821;-36
2021/09/28 00:49:14;;;;;;;;;;;;;;;;;;1026401;28;972;-35
2021/09/28 00:49:46;;;;;;;;;;;;;;;;;;1026497;28;3169;-36
2021/09/28 00:50:17;;;;;;;;;;;;;;;;;;1026329;28;1431;-34
2021/09/28 00:50:48;;;;;;;;;;;;;;;;;;1026755;28;1121;-33
2021/09/28 00:51:19;;;;;;;;;;;;;;;;;;1026540;28;1051;-29
2021/09/28 00:51:50;;;;;;;;;;;;;;;;;;1026526;28;1987;-34
2021/09/28 00:52:20;;;;;;;;;;;;;;;;;;1026420;28;898;-30
2021/09/28 00:52:51;;;;;;;;;;;;;;;;;;1026489;28;1096;-33
2021/09/28 00:53:21;;;;;;;;;;;;;;;;;;1025931;28;1047;-31
2021/09/28 00:53:53;;;;;;;;;;;;;;;;;;1026414;28;946;-36
2021/09/28 00:54:23;;;;;;;;;;;;;;;;;;1025820;28;1071;-34
2021/09/28 00:54:53;;;;;;;;;;;;;;;;;;1026122;28;1004;-34
2021/09/28 00:55:27;;;;;;;;;;;;;;;;;;1026514;28;890;-34
2021/09/28 00:55:58;;;;;;;;;;;;;;;;;;1026600;28;944;-33
2021/09/28 00:56:28;;;;;;;;;;;;;;;;;;1026321;28;900;-35
2021/09/28 00:56:59;;;;;;;;;;;;;;;;;;1026473;28;874;-34
2021/09/28 00:57:29;;;;;;;;;;;;;;;;;;1026152;28;1173;-34
2021/09/28 00:58:08;;;;;;;;;;;;;;;;;;1021856;29;1092;-35
2021/09/28 00:58:38;;;;;;;;;;;;;;;;;;1021703;29;895;-33
2021/09/28 00:59:09;;;;;;;;;;;;;;;;;;1021968;29;1009;-34
2021/09/28 00:59:39;;;;;;;;;;;;;;;;;;1022992;28;1011;-33
2021/09/28 01:00:10;;;;;;;;;;;;;;;;;;1026451;28;919;-35
2021/09/28 01:00:41;;;;;;;;;;;;;;;;;;1026312;28;1254;-31
2021/09/28 01:01:12;;;;;;;;;;;;;;;;;;1026272;28;1189;-33
2021/09/28 01:01:42;;;;;;;;;;;;;;;;;;1026455;28;1182;-31
2021/09/28 01:02:13;;;;;;;;;;;;;;;;;;1026340;28;1264;-31
2021/09/28 01:02:43;;;;;;;;;;;;;;;;;;1026469;28;965;-36
2021/09/28 01:03:14;;;;;;;;;;;;;;;;;;1026436;28;952;-35
2021/09/28 01:03:45;;;;;;;;;;;;;;;;;;1026484;28;890;-33
2021/09/28 01:04:18;;;;;;;;;;;;;;;;;;1026522;28;1091;-32
2021/09/28 01:04:48;;;;;;;;;;;;;;;;;;1026369;28;1146;-39
2021/09/28 01:05:19;;;;;;;;;;;;;;;;;;1026353;28;961;-32
2021/09/28 01:05:49;;;;;;;;;;;;;;;;;;1026681;28;849;-31
2021/09/28 01:06:19;;;;;;;;;;;;;;;;;;1026327;28;968;-34
2021/09/28 01:06:50;;;;;;;;;;;;;;;;;;1026535;28;1013;-35
2021/09/28 01:07:20;;;;;;;;;;;;;;;;;;1026501;28;949;-36
2021/09/28 01:07:51;;;;;;;;;;;;;;;;;;1026498;28;934;-35
2021/09/28 01:08:21;;;;;;;;;;;;;;;;;;1026459;28;1028;-34
2021/09/28 01:08:51;;;;;;;;;;;;;;;;;;1026376;28;815;-34
2021/09/28 01:09:22;;;;;;;;;;;;;;;;;;1026154;28;976;-34
2021/09/28 01:09:52;;;;;;;;;;;;;;;;;;1026099;28;1269;-30
2021/09/28 01:10:23;;;;;;;;;;;;;;;;;;1026171;28;941;-35
2021/09/28 01:10:53;;;;;;;;;;;;;;;;;;1026042;28;1722;-35
2021/09/28 01:11:24;;;;;;;;;;;;;;;;;;1026498;28;1006;-37
2021/09/28 01:11:54;;;;;;;;;;;;;;;;;;1026514;28;1922;-32
2021/09/28 01:12:25;;;;;;;;;;;;;;;;;;1021606;29;962;-31
2021/09/28 01:12:55;;;;;;;;;;;;;;;;;;1021890;29;1293;-34
2021/09/28 01:13:26;;;;;;;;;;;;;;;;;;1021436;29;1116;-35
2021/09/28 01:13:56;;;;;;;;;;;;;;;;;;1022163;29;1158;-35
2021/09/28 01:14:26;;;;;;;;;;;;;;;;;;1026198;28;986;-33
2021/09/28 01:14:57;;;;;;;;;;;;;;;;;;1026786;28;874;-35
2021/09/28 01:15:27;;;;;;;;;;;;;;;;;;1026243;28;858;-30
2021/09/28 01:16:00;;;;;;;;;;;;;;;;;;1026843;28;931;-34
2021/09/28 01:16:30;;;;;;;;;;;;;;;;;;1026359;28;905;-33
2021/09/28 01:17:01;;;;;;;;;;;;;;;;;;1026797;28;874;-32
2021/09/28 01:17:31;;;;;;;;;;;;;;;;;;1026239;28;978;-36
2021/09/28 01:18:02;;;;;;;;;;;;;;;;;;1026660;28;1079;-34
2021/09/28 01:18:33;;;;;;;;;;;;;;;;;;1026446;28;1385;-33
2021/09/28 01:19:03;;;;;;;;;;;;;;;;;;1026654;28;1029;-36
2021/09/28 01:19:34;;;;;;;;;;;;;;;;;;1026316;28;961;-37
2021/09/28 01:20:05;;;;;;;;;;;;;;;;;;1026583;28;898;-34
2021/09/28 01:20:36;;;;;;;;;;;;;;;;;;1026555;28;810;-36
2021/09/28 01:21:07;;;;;;;;;;;;;;;;;;1026500;28;889;-38
2021/09/28 01:21:38;;;;;;;;;;;;;;;;;;1026443;28;873;-35
2021/09/28 01:22:10;;;;;;;;;;;;;;;;;;1026575;28;985;-37
2021/09/28 01:22:40;;;;;;;;;;;;;;;;;;1026518;28;1575;-32
2021/09/28 01:23:11;;;;;;;;;;;;;;;;;;1026418;28;934;-36
2021/09/28 01:23:44;;;;;;;;;;;;;;;;;;1026615;28;903;-35
2021/09/28 01:24:15;;;;;;;;;;;;;;;;;;1026444;28;989;-34
2021/09/28 01:24:46;;;;;;;;;;;;;;;;;;1030072;28;1500;-36
2021/09/28 01:25:16;;;;;;;;;;;;;;;;;;1030631;28;1196;-34
2021/09/28 01:25:47;;;;;;;;;;;;;;;;;;1030399;28;1144;-35
2021/09/28 01:26:23;;;;;;;;;;;;;;;;;;1030576;28;887;-30
2021/09/28 01:26:53;;;;;;;;;;;;;;;;;;1030483;28;937;-37
2021/09/28 01:27:23;;;;;;;;;;;;;;;;;;1030610;28;870;-32
2021/09/28 01:27:54;;;;;;;;;;;;;;;;;;1030238;28;950;-31
2021/09/28 01:28:24;;;;;;;;;;;;;;;;;;1030520;28;870;-35
2021/09/28 01:28:56;;;;;;;;;;;;;;;;;;1030675;28;946;-33
2021/09/28 01:29:26;;;;;;;;;;;;;;;;;;1030478;28;938;-31
2021/09/28 01:29:56;;;;;;;;;;;;;;;;;;1030485;28;787;-36
2021/09/28 01:30:26;;;;;;;;;;;;;;;;;;1030224;28;838;-30
2021/09/28 01:30:58;;;;;;;;;;;;;;;;;;1030706;28;969;-34
2021/09/28 01:31:29;;;;;;;;;;;;;;;;;;1030338;28;862;-31
2021/09/28 01:31:59;;;;;;;;;;;;;;;;;;1030503;28;1907;-33
2021/09/28 01:32:29;;;;;;;;;;;;;;;;;;1030438;28;945;-33
2021/09/28 01:33:00;;;;;;;;;;;;;;;;;;1030540;28;946;-32
2021/09/28 01:33:30;;;;;;;;;;;;;;;;;;1030348;28;1036;-34
2021/09/28 01:34:01;;;;;;;;;;;;;;;;;;1030307;28;1314;-33
2021/09/28 01:34:31;;;;;;;;;;;;;;;;;;1030243;28;1068;-35
2021/09/28 01:35:02;;;;;;;;;;;;;;;;;;1029914;28;1390;-31
2021/09/28 01:35:34;;;;;;;;;;;;;;;;;;1026367;28;981;-33
2021/09/28 01:36:05;;;;;;;;;;;;;;;;;;1026246;28;3520;-32
2021/09/28 01:36:36;;;;;;;;;;;;;;;;;;1026439;28;1071;-31
2021/09/28 01:37:06;;;;;;;;;;;;;;;;;;1026602;28;878;-31
2021/09/28 01:37:37;;;;;;;;;;;;;;;;;;1026543;28;1087;-30
2021/09/28 01:38:07;;;;;;;;;;;;;;;;;;1026334;28;1004;-34
2021/09/28 01:38:38;;;;;;;;;;;;;;;;;;1024120;28;3568;-36
2021/09/28 01:39:09;;;;;;;;;;;;;;;;;;1022377;28;1312;-36
2021/09/28 01:39:39;;;;;;;;;;;;;;;;;;1022679;28;958;-33
2021/09/28 01:40:10;;;;;;;;;;;;;;;;;;1022508;28;878;-32
2021/09/28 01:40:40;;;;;;;;;;;;;;;;;;1022473;28;878;-31
2021/09/28 01:41:11;;;;;;;;;;;;;;;;;;1022618;28;1053;-36
2021/09/28 01:41:41;;;;;;;;;;;;;;;;;;1023096;28;847;-36
2021/09/28 01:42:12;;;;;;;;;;;;;;;;;;1023318;28;978;-30
2021/09/28 01:42:42;;;;;;;;;;;;;;;;;;1023116;28;935;-36
2021/09/28 01:43:14;;;;;;;;;;;;;;;;;;1023019;28;976;-34
2021/09/28 01:43:45;;;;;;;;;;;;;;;;;;1023396;28;992;-35
2021/09/28 01:44:16;;;;;;;;;;;;;;;;;;1023195;28;890;-39
2021/09/28 01:44:47;;;;;;;;;;;;;;;;;;1023049;28;966;-33
2021/09/28 01:45:17;;;;;;;;;;;;;;;;;;1023179;28;946;-34
2021/09/28 01:45:53;;;;;;;;;;;;;;;;;;1023022;28;3248;-34
2021/09/28 01:46:23;;;;;;;;;;;;;;;;;;1027370;28;957;-34
2021/09/28 01:46:54;;;;;;;;;;;;;;;;;;1027083;28;930;-32
2021/09/28 01:47:25;;;;;;;;;;;;;;;;;;1027253;28;848;-32
2021/09/28 01:47:56;;;;;;;;;;;;;;;;;;1027428;28;1122;-31
2021/09/28 01:48:46;;;;;;;;;;;;;;;;;;1026977;28;1016;-34
2021/09/28 01:49:18;;;;;;;;;;;;;;;;;;1023168;28;1308;-36
2021/09/28 01:49:48;;;;;;;;;;;;;;;;;;1026795;28;1453;-34
2021/09/28 01:50:18;;;;;;;;;;;;;;;;;;1024695;28;1157;-36
2021/09/28 01:50:49;;;;;;;;;;;;;;;;;;1023156;29;970;-33
2021/09/28 01:51:19;;;;;;;;;;;;;;;;;;1026322;28;1247;-33
2021/09/28 01:51:49;;;;;;;;;;;;;;;;;;1026900;28;2415;-34
2021/09/28 01:52:20;;;;;;;;;;;;;;;;;;1026562;28;1372;-34
2021/09/28 01:52:50;;;;;;;;;;;;;;;;;;1026471;28;1139;-36
2021/09/28 01:53:20;;;;;;;;;;;;;;;;;;1023928;28;1094;-35
2021/09/28 01:53:51;;;;;;;;;;;;;;;;;;1027073;28;1055;-34
2021/09/28 01:54:21;;;;;;;;;;;;;;;;;;1027060;28;1359;-33
2021/09/28 01:54:51;;;;;;;;;;;;;;;;;;1027359;28;858;-36
2021/09/28 01:55:22;;;;;;;;;;;;;;;;;;1027064;28;1058;-33
2021/09/28 01:55:52;;;;;;;;;;;;;;;;;;1027185;28;958;-35
2021/09/28 01:56:27;;;;;;;;;;;;;;;;;;1027401;28;839;-31
2021/09/28 01:56:57;;;;;;;;;;;;;;;;;;1027332;28;1122;-37
2021/09/28 01:57:27;;;;;;;;;;;;;;;;;;1026823;28;1064;-33
2021/09/28 01:57:59;;;;;;;;;;;;;;;;;;1027258;28;985;-36
2021/09/28 01:58:29;;;;;;;;;;;;;;;;;;1026966;28;989;-34
2021/09/28 01:59:01;;;;;;;;;;;;;;;;;;1027230;28;1106;-34
2021/09/28 01:59:31;;;;;;;;;;;;;;;;;;1026720;28;1305;-34
2021/09/28 02:00:02;;;;;;;;;;;;;;;;;;1027379;28;1263;-32
2021/09/28 02:00:42;;;;;;;;;;;;;;;;;;1027076;28;945;-37
2021/09/28 02:01:12;;;;;;;;;;;;;;;;;;1026694;28;990;-36
2021/09/28 02:01:42;;;;;;;;;;;;;;;;;;1027006;28;933;-36
2021/09/28 02:02:13;;;;;;;;;;;;;;;;;;1026630;28;1025;-36
2021/09/28 02:02:43;;;;;;;;;;;;;;;;;;1026938;28;1013;-34
2021/09/28 02:03:14;;;;;;;;;;;;;;;;;;1026951;28;972;-36
2021/09/28 02:03:44;;;;;;;;;;;;;;;;;;1027381;28;827;-34
2021/09/28 02:04:15;;;;;;;;;;;;;;;;;;1027068;28;996;-36
2021/09/28 02:04:45;;;;;;;;;;;;;;;;;;1027126;28;905;-34
2021/09/28 02:05:16;;;;;;;;;;;;;;;;;;1027290;28;538;-31
2021/09/28 02:05:46;;;;;;;;;;;;;;;;;;1027141;28;977;-36
2021/09/28 02:06:18;;;;;;;;;;;;;;;;;;1026906;28;1330;-31
2021/09/28 02:06:49;;;;;;;;;;;;;;;;;;1027452;28;834;-33
2021/09/28 02:07:19;;;;;;;;;;;;;;;;;;1026855;28;1627;-33
2021/09/28 02:07:49;;;;;;;;;;;;;;;;;;1027146;28;869;-31
2021/09/28 02:08:20;;;;;;;;;;;;;;;;;;1027160;28;917;-32
2021/09/28 02:08:50;;;;;;;;;;;;;;;;;;1027199;28;1103;-37
2021/09/28 02:09:21;;;;;;;;;;;;;;;;;;1027155;28;866;-31
2021/09/28 02:09:51;;;;;;;;;;;;;;;;;;1027029;28;895;-32
2021/09/28 02:10:22;;;;;;;;;;;;;;;;;;1027145;28;929;-31
2021/09/28 02:10:52;;;;;;;;;;;;;;;;;;1027156;28;1151;-31
2021/09/28 02:11:22;;;;;;;;;;;;;;;;;;1027139;28;787;-33
2021/09/28 02:11:53;;;;;;;;;;;;;;;;;;1027097;28;1902;-29
2021/09/28 02:12:23;;;;;;;;;;;;;;;;;;1027195;28;965;-36
2021/09/28 02:12:53;;;;;;;;;;;;;;;;;;1027008;28;1150;-36
2021/09/28 02:13:24;;;;;;;;;;;;;;;;;;1027144;28;1087;-32
2021/09/28 02:13:54;;;;;;;;;;;;;;;;;;1026817;28;874;-34
2021/09/28 02:14:28;;;;;;;;;;;;;;;;;;1026852;28;1038;-36
2021/09/28 02:14:58;;;;;;;;;;;;;;;;;;1027049;28;1526;-35
2021/09/28 02:15:29;;;;;;;;;;;;;;;;;;1026838;28;1247;-31
2021/09/28 02:15:59;;;;;;;;;;;;;;;;;;1027188;28;960;-33
2021/09/28 02:16:30;;;;;;;;;;;;;;;;;;1026975;28;972;-32
2021/09/28 02:17:00;;;;;;;;;;;;;;;;;;1026779;28;1015;-35
2021/09/28 02:17:30;;;;;;;;;;;;;;;;;;1026662;28;942;-34
2021/09/28 02:18:01;;;;;;;;;;;;;;;;;;1026932;28;1099;-33
2021/09/28 02:18:31;;;;;;;;;;;;;;;;;;1026570;28;947;-34
2021/09/28 02:19:02;;;;;;;;;;;;;;;;;;1026979;28;1531;-35
2021/09/28 02:19:32;;;;;;;;;;;;;;;;;;1026935;28;1162;-36
2021/09/28 02:20:03;;;;;;;;;;;;;;;;;;1027343;28;1156;-36
2021/09/28 02:20:33;;;;;;;;;;;;;;;;;;1026837;28;1082;-35
2021/09/28 02:21:04;;;;;;;;;;;;;;;;;;1027169;28;923;-31
2021/09/28 02:21:34;;;;;;;;;;;;;;;;;;1027128;28;893;-32
2021/09/28 02:22:04;;;;;;;;;;;;;;;;;;1027098;28;1025;-33
2021/09/28 02:22:35;;;;;;;;;;;;;;;;;;1027028;28;1473;-37
2021/09/28 02:23:05;;;;;;;;;;;;;;;;;;1026968;28;798;-34
2021/09/28 02:23:36;;;;;;;;;;;;;;;;;;1027145;28;1022;-36
2021/09/28 02:24:06;;;;;;;;;;;;;;;;;;1027005;28;1271;-33
2021/09/28 02:24:36;;;;;;;;;;;;;;;;;;1029881;28;1192;-36
2021/09/28 02:25:08;;;;;;;;;;;;;;;;;;1030681;28;1010;-31
2021/09/28 02:25:38;;;;;;;;;;;;;;;;;;1026261;28;1034;-36
2021/09/28 02:26:09;;;;;;;;;;;;;;;;;;1026441;28;937;-34
2021/09/28 02:26:39;;;;;;;;;;;;;;;;;;1026421;28;1107;-33
2021/09/28 02:27:10;;;;;;;;;;;;;;;;;;1022143;29;1241;-32
2021/09/28 02:27:40;;;;;;;;;;;;;;;;;;1026668;28;861;-33
2021/09/28 02:28:10;;;;;;;;;;;;;;;;;;1026219;28;1059;-33
2021/09/28 02:28:41;;;;;;;;;;;;;;;;;;1026436;28;1207;-34
2021/09/28 02:29:11;;;;;;;;;;;;;;;;;;1030931;28;929;-32
2021/09/28 02:29:41;;;;;;;;;;;;;;;;;;1031081;28;1088;-31
2021/09/28 02:30:12;;;;;;;;;;;;;;;;;;1030898;28;892;-36
2021/09/28 02:30:42;;;;;;;;;;;;;;;;;;1031103;28;984;-34
2021/09/28 02:31:13;;;;;;;;;;;;;;;;;;1030776;28;1295;-33
2021/09/28 02:31:43;;;;;;;;;;;;;;;;;;1027124;28;2396;-36
2021/09/28 02:32:13;;;;;;;;;;;;;;;;;;1026933;28;851;-32
2021/09/28 02:32:44;;;;;;;;;;;;;;;;;;1027197;28;858;-35
2021/09/28 02:33:14;;;;;;;;;;;;;;;;;;1027047;28;955;-34
2021/09/28 02:33:45;;;;;;;;;;;;;;;;;;1027005;28;899;-34
2021/09/28 02:34:15;;;;;;;;;;;;;;;;;;1027042;28;542;-33
2021/09/28 02:34:45;;;;;;;;;;;;;;;;;;1027003;28;977;-35
2021/09/28 02:35:16;;;;;;;;;;;;;;;;;;1026984;28;1620;-33
2021/09/28 02:35:47;;;;;;;;;;;;;;;;;;1027124;28;875;-35
2021/09/28 02:36:17;;;;;;;;;;;;;;;;;;1026059;28;3597;-36
2021/09/28 02:36:47;;;;;;;;;;;;;;;;;;1026238;28;951;-31
2021/09/28 02:37:18;;;;;;;;;;;;;;;;;;1026345;28;834;-37
2021/09/28 02:37:48;;;;;;;;;;;;;;;;;;1026260;28;889;-34
2021/09/28 02:38:19;;;;;;;;;;;;;;;;;;1027041;28;883;-34
2021/09/28 02:38:49;;;;;;;;;;;;;;;;;;1023135;28;3696;-29
2021/09/28 02:39:19;;;;;;;;;;;;;;;;;;1023030;28;963;-34
2021/09/28 02:39:50;;;;;;;;;;;;;;;;;;1023078;28;996;-36
2021/09/28 02:40:20;;;;;;;;;;;;;;;;;;1023050;28;886;-37
2021/09/28 02:40:51;;;;;;;;;;;;;;;;;;1023037;28;942;-36
2021/09/28 02:41:21;;;;;;;;;;;;;;;;;;1026240;28;1032;-33
2021/09/28 02:41:51;;;;;;;;;;;;;;;;;;1026340;28;1102;-34
2021/09/28 02:42:22;;;;;;;;;;;;;;;;;;1026198;28;3107;-33
2021/09/28 02:42:53;;;;;;;;;;;;;;;;;;1026188;28;1119;-37
2021/09/28 02:43:24;;;;;;;;;;;;;;;;;;1026971;28;842;-36
2021/09/28 02:43:54;;;;;;;;;;;;;;;;;;1027049;28;948;-36
2021/09/28 02:44:24;;;;;;;;;;;;;;;;;;1026664;28;1281;-37
2021/09/28 02:44:56;;;;;;;;;;;;;;;;;;1027171;28;990;-36
2021/09/28 02:45:27;;;;;;;;;;;;;;;;;;1026730;28;917;-35
2021/09/28 02:45:57;;;;;;;;;;;;;;;;;;1027200;28;906;-31
2021/09/28 02:46:27;;;;;;;;;;;;;;;;;;1025186;28;1161;-37
2021/09/28 02:46:58;;;;;;;;;;;;;;;;;;1023193;28;855;-35
2021/09/28 02:47:28;;;;;;;;;;;;;;;;;;1022907;28;1055;-34
2021/09/28 02:47:59;;;;;;;;;;;;;;;;;;1023078;29;809;-34
2021/09/28 02:48:30;;;;;;;;;;;;;;;;;;1022881;29;965;-36
2021/09/28 02:49:00;;;;;;;;;;;;;;;;;;1023241;28;1351;-31
2021/09/28 02:49:30;;;;;;;;;;;;;;;;;;1022335;28;1370;-36
2021/09/28 02:50:01;;;;;;;;;;;;;;;;;;1027188;28;942;-32
2021/09/28 02:50:33;;;;;;;;;;;;;;;;;;1026689;28;1012;-32
2021/09/28 02:51:04;;;;;;;;;;;;;;;;;;1027007;28;1077;-36
2021/09/28 02:51:34;;;;;;;;;;;;;;;;;;1026938;28;953;-31
2021/09/28 02:52:05;;;;;;;;;;;;;;;;;;1026792;28;1910;-34
2021/09/28 02:52:35;;;;;;;;;;;;;;;;;;1027058;28;909;-32
2021/09/28 02:53:05;;;;;;;;;;;;;;;;;;1026546;28;972;-33
2021/09/28 02:53:36;;;;;;;;;;;;;;;;;;1026816;28;981;-35
2021/09/28 02:54:06;;;;;;;;;;;;;;;;;;1026900;28;1133;-35
2021/09/28 02:54:36;;;;;;;;;;;;;;;;;;1026462;28;867;-33
2021/09/28 02:55:07;;;;;;;;;;;;;;;;;;1026750;28;942;-35
2021/09/28 02:55:37;;;;;;;;;;;;;;;;;;1026736;28;1269;-31
2021/09/28 02:56:08;;;;;;;;;;;;;;;;;;1026024;28;1647;-33
2021/09/28 02:56:38;;;;;;;;;;;;;;;;;;1027036;28;1186;-35
2021/09/28 02:57:08;;;;;;;;;;;;;;;;;;1026787;28;1198;-35
2021/09/28 02:57:39;;;;;;;;;;;;;;;;;;1027171;28;981;-34
2021/09/28 02:58:09;;;;;;;;;;;;;;;;;;1026991;28;839;-34
2021/09/28 02:58:39;;;;;;;;;;;;;;;;;;1026924;28;922;-36
2021/09/28 02:59:10;;;;;;;;;;;;;;;;;;1026648;28;1007;-35
2021/09/28 02:59:42;;;;;;;;;;;;;;;;;;1026611;28;807;-37
2021/09/28 03:00:12;;;;;;;;;;;;;;;;;;1026462;28;892;-34
2021/09/28 03:00:43;;;;;;;;;;;;;;;;;;1026757;28;941;-31
2021/09/28 03:01:13;;;;;;;;;;;;;;;;;;1026866;28;926;-36
2021/09/28 03:01:44;;;;;;;;;;;;;;;;;;1026902;28;977;-35
2021/09/28 03:02:16;;;;;;;;;;;;;;;;;;1026178;28;1071;-34
2021/09/28 03:02:46;;;;;;;;;;;;;;;;;;1025748;28;1249;-31
2021/09/28 03:03:16;;;;;;;;;;;;;;;;;;1026322;28;1057;-34
2021/09/28 03:03:47;;;;;;;;;;;;;;;;;;1025671;28;1687;-33
2021/09/28 03:04:17;;;;;;;;;;;;;;;;;;1026687;28;1053;-34
2021/09/28 03:04:47;;;;;;;;;;;;;;;;;;1026973;28;989;-32
2021/09/28 03:05:18;;;;;;;;;;;;;;;;;;1026818;28;1067;-36
2021/09/28 03:05:49;;;;;;;;;;;;;;;;;;1026094;28;1084;-34
2021/09/28 03:06:20;;;;;;;;;;;;;;;;;;1026313;28;1431;-34
2021/09/28 03:06:50;;;;;;;;;;;;;;;;;;1026067;28;928;-33
2021/09/28 03:07:20;;;;;;;;;;;;;;;;;;1026280;28;980;-34
2021/09/28 03:07:51;;;;;;;;;;;;;;;;;;1026944;28;962;-33
2021/09/28 03:08:21;;;;;;;;;;;;;;;;;;1026959;28;953;-33
2021/09/28 03:08:51;;;;;;;;;;;;;;;;;;1026834;28;910;-34
2021/09/28 03:09:22;;;;;;;;;;;;;;;;;;1026930;28;854;-31
2021/09/28 03:09:52;;;;;;;;;;;;;;;;;;1026905;28;929;-34
2021/09/28 03:10:23;;;;;;;;;;;;;;;;;;1026923;28;972;-31
2021/09/28 03:10:53;;;;;;;;;;;;;;;;;;1026891;28;964;-34
2021/09/28 03:11:27;;;;;;;;;;;;;;;;;;1026975;28;919;-35
2021/09/28 03:11:57;;;;;;;;;;;;;;;;;;1027001;28;1907;-36
2021/09/28 03:12:27;;;;;;;;;;;;;;;;;;1026673;28;945;-36
2021/09/28 03:12:58;;;;;;;;;;;;;;;;;;1026954;28;1268;-36
2021/09/28 03:13:28;;;;;;;;;;;;;;;;;;1026521;28;1194;-35
2021/09/28 03:14:02;;;;;;;;;;;;;;;;;;1027113;28;917;-30
2021/09/28 03:14:32;;;;;;;;;;;;;;;;;;1026588;28;818;-31
2021/09/28 03:15:03;;;;;;;;;;;;;;;;;;1026859;28;1029;-35
2021/09/28 03:15:33;;;;;;;;;;;;;;;;;;1026788;28;919;-35
2021/09/28 03:16:04;;;;;;;;;;;;;;;;;;1026907;28;954;-36
2021/09/28 03:16:35;;;;;;;;;;;;;;;;;;1026825;28;940;-36
2021/09/28 03:17:05;;;;;;;;;;;;;;;;;;1021659;29;1489;-35
2021/09/28 03:17:35;;;;;;;;;;;;;;;;;;1022180;29;1143;-37
2021/09/28 03:18:06;;;;;;;;;;;;;;;;;;1022178;29;1025;-37
2021/09/28 03:18:36;;;;;;;;;;;;;;;;;;1022169;29;943;-35
2021/09/28 03:19:07;;;;;;;;;;;;;;;;;;1025988;28;1100;-32
2021/09/28 03:19:37;;;;;;;;;;;;;;;;;;1026236;28;937;-34
2021/09/28 03:20:08;;;;;;;;;;;;;;;;;;1026237;28;957;-36
2021/09/28 03:20:38;;;;;;;;;;;;;;;;;;1026160;28;867;-35
2021/09/28 03:21:09;;;;;;;;;;;;;;;;;;1026836;28;969;-37
2021/09/28 03:21:39;;;;;;;;;;;;;;;;;;1022119;28;995;-37
2021/09/28 03:22:10;;;;;;;;;;;;;;;;;;1022139;29;934;-37
2021/09/28 03:22:40;;;;;;;;;;;;;;;;;;1022098;29;1556;-32
2021/09/28 03:23:10;;;;;;;;;;;;;;;;;;1022211;28;1119;-33
2021/09/28 03:23:41;;;;;;;;;;;;;;;;;;1026804;28;981;-35
2021/09/28 03:24:11;;;;;;;;;;;;;;;;;;1026889;28;1020;-35
2021/09/28 03:24:42;;;;;;;;;;;;;;;;;;1030172;28;1457;-35
2021/09/28 03:25:12;;;;;;;;;;;;;;;;;;1030625;28;1062;-31
2021/09/28 03:25:43;;;;;;;;;;;;;;;;;;1030084;28;1236;-34
2021/09/28 03:26:13;;;;;;;;;;;;;;;;;;1030007;28;1339;-35
2021/09/28 03:26:44;;;;;;;;;;;;;;;;;;1030093;28;984;-36
2021/09/28 03:27:14;;;;;;;;;;;;;;;;;;1030408;28;973;-34
2021/09/28 03:27:44;;;;;;;;;;;;;;;;;;1028205;28;1314;-34
2021/09/28 03:28:16;;;;;;;;;;;;;;;;;;1027025;28;977;-33
2021/09/28 03:28:47;;;;;;;;;;;;;;;;;;1026685;28;965;-37
2021/09/28 03:29:17;;;;;;;;;;;;;;;;;;1026984;28;1075;-36
2021/09/28 03:29:48;;;;;;;;;;;;;;;;;;1025933;28;901;-34
2021/09/28 03:30:18;;;;;;;;;;;;;;;;;;1025744;28;942;-34
2021/09/28 03:30:48;;;;;;;;;;;;;;;;;;1026188;28;1005;-29
2021/09/28 03:31:19;;;;;;;;;;;;;;;;;;1026231;28;989;-34
2021/09/28 03:31:49;;;;;;;;;;;;;;;;;;1026539;28;1910;-36
2021/09/28 03:32:19;;;;;;;;;;;;;;;;;;1027038;28;945;-34
2021/09/28 03:32:50;;;;;;;;;;;;;;;;;;1026632;28;1057;-32
2021/09/28 03:33:20;;;;;;;;;;;;;;;;;;1026895;28;996;-31
2021/09/28 03:33:51;;;;;;;;;;;;;;;;;;1026784;28;965;-34
2021/09/28 03:34:21;;;;;;;;;;;;;;;;;;1026651;28;937;-36
2021/09/28 03:34:51;;;;;;;;;;;;;;;;;;1026784;28;994;-35
2021/09/28 03:35:22;;;;;;;;;;;;;;;;;;1026965;28;823;-34
2021/09/28 03:35:52;;;;;;;;;;;;;;;;;;1026665;28;925;-32